sensor_id;sensor_type;location;lat;lon;timestamp;P1;durP1;ratioP1;P2;durP2;ratioP2
30398;SDS011;17195;50.838;7.214;2022-08-07T00:01:26;2.75;;;0.65;;
30398;SDS011;17195;50.838;7.214;2022-08-07T00:03:51;0.88;;;0.50;;
30398;SDS011;17195;50.838;7.214;2022-08-07T00:06:17;0.95;;;0.70;;
30398;SDS011;17195;50.838;7.214;2022-08-07T00:08:43;1.95;;;0.73;;
30398;SDS011;17195;50.838;7.214;2022-08-07T00:11:08;0.80;;;0.60;;
30398;SDS011;17195;50.838;7.214;2022-08-07T00:13:34;0.50;;;0.50;;
30398;SDS011;17195;50.838;7.214;2022-08-07T00:16:01;0.70;;;0.60;;
30398;SDS011;17195;50.838;7.214;2022-08-07T00:18:28;0.80;;;0.70;;
30398;SDS011;17195;50.838;7.214;2022-08-07T00:20:58;1.67;;;0.88;;
30398;SDS011;17195;50.838;7.214;2022-08-07T00:23:26;2.38;;;0.90;;
30398;SDS011;17195;50.838;7.214;2022-08-07T00:25:53;1.23;;;0.47;;
30398;SDS011;17195;50.838;7.214;2022-08-07T00:28:19;1.85;;;0.73;;
30398;SDS011;17195;50.838;7.214;2022-08-07T00:30:45;2.00;;;0.60;;
30398;SDS011;17195;50.838;7.214;2022-08-07T00:33:11;1.48;;;1.02;;
30398;SDS011;17195;50.838;7.214;2022-08-07T00:35:36;1.83;;;0.93;;
30398;SDS011;17195;50.838;7.214;2022-08-07T00:38:03;1.30;;;0.90;;
30398;SDS011;17195;50.838;7.214;2022-08-07T00:40:29;1.83;;;0.77;;
30398;SDS011;17195;50.838;7.214;2022-08-07T00:42:55;2.33;;;1.05;;
30398;SDS011;17195;50.838;7.214;2022-08-07T00:45:21;1.00;;;0.60;;
30398;SDS011;17195;50.838;7.214;2022-08-07T00:47:47;0.60;;;0.50;;
30398;SDS011;17195;50.838;7.214;2022-08-07T00:50:13;1.50;;;0.80;;
30398;SDS011;17195;50.838;7.214;2022-08-07T00:52:39;0.82;;;0.50;;
30398;SDS011;17195;50.838;7.214;2022-08-07T00:55:05;1.90;;;0.60;;
30398;SDS011;17195;50.838;7.214;2022-08-07T00:57:31;0.55;;;0.40;;
30398;SDS011;17195;50.838;7.214;2022-08-07T00:59:57;2.47;;;0.70;;
30398;SDS011;17195;50.838;7.214;2022-08-07T01:02:23;0.70;;;0.60;;
30398;SDS011;17195;50.838;7.214;2022-08-07T01:04:49;0.77;;;0.40;;
30398;SDS011;17195;50.838;7.214;2022-08-07T01:07:15;1.08;;;0.80;;
30398;SDS011;17195;50.838;7.214;2022-08-07T01:09:43;0.98;;;0.60;;
30398;SDS011;17195;50.838;7.214;2022-08-07T01:12:08;2.35;;;0.60;;
30398;SDS011;17195;50.838;7.214;2022-08-07T01:14:34;1.83;;;0.50;;
30398;SDS011;17195;50.838;7.214;2022-08-07T01:17:00;0.80;;;0.60;;
30398;SDS011;17195;50.838;7.214;2022-08-07T01:19:26;1.42;;;0.60;;
30398;SDS011;17195;50.838;7.214;2022-08-07T01:21:54;1.27;;;1.00;;
30398;SDS011;17195;50.838;7.214;2022-08-07T01:24:20;1.05;;;0.60;;
30398;SDS011;17195;50.838;7.214;2022-08-07T01:26:46;3.03;;;0.60;;
30398;SDS011;17195;50.838;7.214;2022-08-07T01:29:13;0.82;;;0.75;;
30398;SDS011;17195;50.838;7.214;2022-08-07T01:31:38;1.67;;;0.57;;
30398;SDS011;17195;50.838;7.214;2022-08-07T01:34:04;0.60;;;0.57;;
30398;SDS011;17195;50.838;7.214;2022-08-07T01:36:30;0.60;;;0.50;;
30398;SDS011;17195;50.838;7.214;2022-08-07T01:38:56;3.00;;;0.50;;
30398;SDS011;17195;50.838;7.214;2022-08-07T01:41:23;1.55;;;0.60;;
30398;SDS011;17195;50.838;7.214;2022-08-07T01:43:49;1.25;;;0.57;;
30398;SDS011;17195;50.838;7.214;2022-08-07T01:46:16;2.08;;;0.50;;
30398;SDS011;17195;50.838;7.214;2022-08-07T01:48:43;0.70;;;0.60;;
30398;SDS011;17195;50.838;7.214;2022-08-07T01:51:10;0.65;;;0.50;;
30398;SDS011;17195;50.838;7.214;2022-08-07T01:53:42;0.77;;;0.57;;
30398;SDS011;17195;50.838;7.214;2022-08-07T01:56:13;2.75;;;0.60;;
30398;SDS011;17195;50.838;7.214;2022-08-07T01:58:43;1.17;;;0.60;;
30398;SDS011;17195;50.838;7.214;2022-08-07T02:01:16;2.60;;;0.60;;
30398;SDS011;17195;50.838;7.214;2022-08-07T02:03:50;1.83;;;0.90;;
30398;SDS011;17195;50.838;7.214;2022-08-07T02:06:21;0.70;;;0.60;;
30398;SDS011;17195;50.838;7.214;2022-08-07T02:08:50;0.93;;;0.60;;
30398;SDS011;17195;50.838;7.214;2022-08-07T02:11:18;0.50;;;0.50;;
30398;SDS011;17195;50.838;7.214;2022-08-07T02:13:43;1.10;;;0.50;;
30398;SDS011;17195;50.838;7.214;2022-08-07T02:16:11;2.65;;;0.60;;
30398;SDS011;17195;50.838;7.214;2022-08-07T02:18:38;1.52;;;0.63;;
30398;SDS011;17195;50.838;7.214;2022-08-07T02:21:06;0.95;;;0.60;;
30398;SDS011;17195;50.838;7.214;2022-08-07T02:23:33;3.45;;;0.80;;
30398;SDS011;17195;50.838;7.214;2022-08-07T02:26:01;1.17;;;0.70;;
30398;SDS011;17195;50.838;7.214;2022-08-07T02:28:28;1.95;;;0.70;;
30398;SDS011;17195;50.838;7.214;2022-08-07T02:30:55;1.88;;;0.80;;
30398;SDS011;17195;50.838;7.214;2022-08-07T02:33:25;1.02;;;0.80;;
30398;SDS011;17195;50.838;7.214;2022-08-07T02:35:52;0.98;;;0.73;;
30398;SDS011;17195;50.838;7.214;2022-08-07T02:38:19;2.05;;;0.80;;
30398;SDS011;17195;50.838;7.214;2022-08-07T02:40:47;0.73;;;0.52;;
30398;SDS011;17195;50.838;7.214;2022-08-07T02:43:13;1.95;;;0.80;;
30398;SDS011;17195;50.838;7.214;2022-08-07T02:45:40;1.92;;;0.70;;
30398;SDS011;17195;50.838;7.214;2022-08-07T02:48:07;0.98;;;0.70;;
30398;SDS011;17195;50.838;7.214;2022-08-07T02:50:33;1.27;;;0.55;;
30398;SDS011;17195;50.838;7.214;2022-08-07T02:53:07;1.15;;;0.68;;
30398;SDS011;17195;50.838;7.214;2022-08-07T02:55:36;2.50;;;0.80;;
30398;SDS011;17195;50.838;7.214;2022-08-07T02:58:09;0.70;;;0.70;;
30398;SDS011;17195;50.838;7.214;2022-08-07T03:00:36;1.27;;;1.02;;
30398;SDS011;17195;50.838;7.214;2022-08-07T03:03:05;1.80;;;0.75;;
30398;SDS011;17195;50.838;7.214;2022-08-07T03:05:33;1.00;;;0.85;;
30398;SDS011;17195;50.838;7.214;2022-08-07T03:08:00;1.30;;;0.80;;
30398;SDS011;17195;50.838;7.214;2022-08-07T03:10:26;1.45;;;0.73;;
30398;SDS011;17195;50.838;7.214;2022-08-07T03:12:52;0.95;;;0.73;;
30398;SDS011;17195;50.838;7.214;2022-08-07T03:15:19;0.75;;;0.75;;
30398;SDS011;17195;50.838;7.214;2022-08-07T03:17:45;1.20;;;0.70;;
30398;SDS011;17195;50.838;7.214;2022-08-07T03:20:11;2.70;;;1.00;;
30398;SDS011;17195;50.838;7.214;2022-08-07T03:22:37;2.22;;;0.90;;
30398;SDS011;17195;50.838;7.214;2022-08-07T03:25:06;4.45;;;0.90;;
30398;SDS011;17195;50.838;7.214;2022-08-07T03:27:32;1.08;;;0.90;;
30398;SDS011;17195;50.838;7.214;2022-08-07T03:29:58;3.55;;;1.23;;
30398;SDS011;17195;50.838;7.214;2022-08-07T03:32:25;0.95;;;0.80;;
30398;SDS011;17195;50.838;7.214;2022-08-07T03:34:56;2.40;;;0.88;;
30398;SDS011;17195;50.838;7.214;2022-08-07T03:37:24;1.92;;;0.88;;
30398;SDS011;17195;50.838;7.214;2022-08-07T03:39:51;2.60;;;0.90;;
30398;SDS011;17195;50.838;7.214;2022-08-07T03:42:17;1.67;;;0.88;;
30398;SDS011;17195;50.838;7.214;2022-08-07T03:44:44;0.77;;;0.73;;
30398;SDS011;17195;50.838;7.214;2022-08-07T03:47:11;3.17;;;0.88;;
30398;SDS011;17195;50.838;7.214;2022-08-07T03:49:37;1.88;;;0.82;;
30398;SDS011;17195;50.838;7.214;2022-08-07T03:52:04;1.95;;;1.02;;
30398;SDS011;17195;50.838;7.214;2022-08-07T03:54:31;1.52;;;0.80;;
30398;SDS011;17195;50.838;7.214;2022-08-07T03:56:58;3.38;;;0.80;;
30398;SDS011;17195;50.838;7.214;2022-08-07T03:59:25;3.88;;;1.10;;
30398;SDS011;17195;50.838;7.214;2022-08-07T04:01:52;1.65;;;0.77;;
30398;SDS011;17195;50.838;7.214;2022-08-07T04:04:19;0.63;;;0.63;;
30398;SDS011;17195;50.838;7.214;2022-08-07T04:06:46;2.80;;;1.00;;
30398;SDS011;17195;50.838;7.214;2022-08-07T04:09:12;1.10;;;1.00;;
30398;SDS011;17195;50.838;7.214;2022-08-07T04:11:39;0.80;;;0.80;;
30398;SDS011;17195;50.838;7.214;2022-08-07T04:14:05;1.60;;;0.95;;
30398;SDS011;17195;50.838;7.214;2022-08-07T04:16:31;2.30;;;0.98;;
30398;SDS011;17195;50.838;7.214;2022-08-07T04:18:58;3.47;;;0.75;;
30398;SDS011;17195;50.838;7.214;2022-08-07T04:21:24;2.03;;;1.15;;
30398;SDS011;17195;50.838;7.214;2022-08-07T04:23:50;0.70;;;0.70;;
30398;SDS011;17195;50.838;7.214;2022-08-07T04:26:16;1.00;;;0.70;;
30398;SDS011;17195;50.838;7.214;2022-08-07T04:28:42;3.17;;;0.90;;
30398;SDS011;17195;50.838;7.214;2022-08-07T04:31:08;1.05;;;0.90;;
30398;SDS011;17195;50.838;7.214;2022-08-07T04:33:37;1.25;;;0.80;;
30398;SDS011;17195;50.838;7.214;2022-08-07T04:36:05;1.77;;;0.90;;
30398;SDS011;17195;50.838;7.214;2022-08-07T04:38:32;2.35;;;0.90;;
30398;SDS011;17195;50.838;7.214;2022-08-07T04:40:59;1.65;;;0.80;;
30398;SDS011;17195;50.838;7.214;2022-08-07T04:43:25;3.30;;;0.90;;
30398;SDS011;17195;50.838;7.214;2022-08-07T04:46:12;1.63;;;1.02;;
30398;SDS011;17195;50.838;7.214;2022-08-07T04:48:59;1.40;;;0.88;;
30398;SDS011;17195;50.838;7.214;2022-08-07T04:55:00;2.13;;;0.82;;
30398;SDS011;17195;50.838;7.214;2022-08-07T05:00:16;1.10;;;0.90;;
30398;SDS011;17195;50.838;7.214;2022-08-07T05:06:01;1.05;;;0.95;;
30398;SDS011;17195;50.838;7.214;2022-08-07T05:08:52;4.70;;;1.02;;
30398;SDS011;17195;50.838;7.214;2022-08-07T05:11:24;0.80;;;0.80;;
30398;SDS011;17195;50.838;7.214;2022-08-07T05:14:11;1.98;;;1.10;;
30398;SDS011;17195;50.838;7.214;2022-08-07T05:16:43;3.05;;;1.40;;
30398;SDS011;17195;50.838;7.214;2022-08-07T05:19:15;1.25;;;0.90;;
30398;SDS011;17195;50.838;7.214;2022-08-07T05:21:48;1.75;;;0.95;;
30398;SDS011;17195;50.838;7.214;2022-08-07T05:24:19;0.90;;;0.90;;
30398;SDS011;17195;50.838;7.214;2022-08-07T05:26:48;1.58;;;1.00;;
30398;SDS011;17195;50.838;7.214;2022-08-07T05:29:17;1.40;;;1.00;;
30398;SDS011;17195;50.838;7.214;2022-08-07T05:31:45;1.20;;;1.10;;
30398;SDS011;17195;50.838;7.214;2022-08-07T05:34:13;1.05;;;0.80;;
30398;SDS011;17195;50.838;7.214;2022-08-07T05:36:49;1.13;;;1.02;;
30398;SDS011;17195;50.838;7.214;2022-08-07T05:39:16;1.27;;;1.10;;
30398;SDS011;17195;50.838;7.214;2022-08-07T05:41:43;1.63;;;1.25;;
30398;SDS011;17195;50.838;7.214;2022-08-07T05:44:11;1.20;;;0.90;;
30398;SDS011;17195;50.838;7.214;2022-08-07T05:46:37;1.33;;;1.00;;
30398;SDS011;17195;50.838;7.214;2022-08-07T05:49:05;1.73;;;1.42;;
30398;SDS011;17195;50.838;7.214;2022-08-07T05:51:32;1.20;;;0.95;;
30398;SDS011;17195;50.838;7.214;2022-08-07T05:53:58;1.65;;;0.90;;
30398;SDS011;17195;50.838;7.214;2022-08-07T05:56:25;1.40;;;0.95;;
30398;SDS011;17195;50.838;7.214;2022-08-07T05:58:51;3.17;;;1.10;;
30398;SDS011;17195;50.838;7.214;2022-08-07T06:01:17;1.38;;;1.00;;
30398;SDS011;17195;50.838;7.214;2022-08-07T06:03:46;1.48;;;0.93;;
30398;SDS011;17195;50.838;7.214;2022-08-07T06:06:15;1.48;;;1.00;;
30398;SDS011;17195;50.838;7.214;2022-08-07T06:08:41;0.82;;;0.82;;
30398;SDS011;17195;50.838;7.214;2022-08-07T06:11:08;3.85;;;1.15;;
30398;SDS011;17195;50.838;7.214;2022-08-07T06:13:35;3.20;;;0.88;;
30398;SDS011;17195;50.838;7.214;2022-08-07T06:16:01;1.58;;;0.90;;
30398;SDS011;17195;50.838;7.214;2022-08-07T06:18:28;1.00;;;0.88;;
30398;SDS011;17195;50.838;7.214;2022-08-07T06:20:56;2.47;;;0.90;;
30398;SDS011;17195;50.838;7.214;2022-08-07T06:23:23;2.35;;;1.10;;
30398;SDS011;17195;50.838;7.214;2022-08-07T06:25:49;1.17;;;0.73;;
30398;SDS011;17195;50.838;7.214;2022-08-07T06:28:15;1.88;;;1.20;;
30398;SDS011;17195;50.838;7.214;2022-08-07T06:30:41;1.25;;;1.00;;
30398;SDS011;17195;50.838;7.214;2022-08-07T06:33:07;1.02;;;0.93;;
30398;SDS011;17195;50.838;7.214;2022-08-07T06:35:33;3.35;;;1.02;;
30398;SDS011;17195;50.838;7.214;2022-08-07T06:38:00;1.58;;;1.05;;
30398;SDS011;17195;50.838;7.214;2022-08-07T06:40:27;2.35;;;1.00;;
30398;SDS011;17195;50.838;7.214;2022-08-07T06:42:54;1.60;;;0.90;;
30398;SDS011;17195;50.838;7.214;2022-08-07T06:45:21;2.33;;;1.02;;
30398;SDS011;17195;50.838;7.214;2022-08-07T06:47:47;3.58;;;0.80;;
30398;SDS011;17195;50.838;7.214;2022-08-07T06:50:14;1.35;;;0.80;;
30398;SDS011;17195;50.838;7.214;2022-08-07T06:52:43;3.50;;;1.13;;
30398;SDS011;17195;50.838;7.214;2022-08-07T06:57:46;2.28;;;1.10;;
30398;SDS011;17195;50.838;7.214;2022-08-07T07:00:14;1.30;;;1.00;;
30398;SDS011;17195;50.838;7.214;2022-08-07T07:02:41;1.73;;;0.90;;
30398;SDS011;17195;50.838;7.214;2022-08-07T07:05:07;1.63;;;0.90;;
30398;SDS011;17195;50.838;7.214;2022-08-07T07:07:33;5.07;;;1.08;;
30398;SDS011;17195;50.838;7.214;2022-08-07T07:09:59;0.90;;;0.60;;
30398;SDS011;17195;50.838;7.214;2022-08-07T07:12:42;1.38;;;0.90;;
30398;SDS011;17195;50.838;7.214;2022-08-07T07:15:19;3.13;;;0.80;;
30398;SDS011;17195;50.838;7.214;2022-08-07T07:20:34;1.42;;;0.75;;
30398;SDS011;17195;50.838;7.214;2022-08-07T07:23:03;1.20;;;0.70;;
30398;SDS011;17195;50.838;7.214;2022-08-07T07:25:30;1.45;;;0.80;;
30398;SDS011;17195;50.838;7.214;2022-08-07T07:27:59;0.68;;;0.63;;
30398;SDS011;17195;50.838;7.214;2022-08-07T07:30:31;0.95;;;0.52;;
30398;SDS011;17195;50.838;7.214;2022-08-07T07:33:00;2.00;;;0.70;;
30398;SDS011;17195;50.838;7.214;2022-08-07T07:35:27;1.90;;;0.60;;
30398;SDS011;17195;50.838;7.214;2022-08-07T07:37:54;0.80;;;0.50;;
30398;SDS011;17195;50.838;7.214;2022-08-07T07:40:21;1.20;;;0.50;;
30398;SDS011;17195;50.838;7.214;2022-08-07T07:42:49;0.85;;;0.40;;
30398;SDS011;17195;50.838;7.214;2022-08-07T07:45:17;1.10;;;0.43;;
30398;SDS011;17195;50.838;7.214;2022-08-07T07:47:44;2.42;;;0.60;;
30398;SDS011;17195;50.838;7.214;2022-08-07T07:50:12;1.95;;;0.40;;
30398;SDS011;17195;50.838;7.214;2022-08-07T07:52:40;2.78;;;0.40;;
30398;SDS011;17195;50.838;7.214;2022-08-07T07:55:07;1.58;;;0.50;;
30398;SDS011;17195;50.838;7.214;2022-08-07T07:57:34;1.70;;;0.45;;
30398;SDS011;17195;50.838;7.214;2022-08-07T08:00:02;0.77;;;0.45;;
30398;SDS011;17195;50.838;7.214;2022-08-07T08:02:28;1.30;;;0.40;;
30398;SDS011;17195;50.838;7.214;2022-08-07T08:04:56;1.05;;;0.40;;
30398;SDS011;17195;50.838;7.214;2022-08-07T08:07:24;0.60;;;0.47;;
30398;SDS011;17195;50.838;7.214;2022-08-07T08:09:51;0.63;;;0.57;;
30398;SDS011;17195;50.838;7.214;2022-08-07T08:12:18;1.25;;;0.50;;
30398;SDS011;17195;50.838;7.214;2022-08-07T08:14:45;0.68;;;0.50;;
30398;SDS011;17195;50.838;7.214;2022-08-07T08:17:11;2.10;;;0.50;;
30398;SDS011;17195;50.838;7.214;2022-08-07T08:19:38;4.50;;;0.55;;
30398;SDS011;17195;50.838;7.214;2022-08-07T08:22:05;1.23;;;0.50;;
30398;SDS011;17195;50.838;7.214;2022-08-07T08:24:52;0.45;;;0.28;;
30398;SDS011;17195;50.838;7.214;2022-08-07T08:27:38;1.48;;;0.50;;
30398;SDS011;17195;50.838;7.214;2022-08-07T08:30:06;1.50;;;0.65;;
30398;SDS011;17195;50.838;7.214;2022-08-07T08:32:44;2.05;;;0.60;;
30398;SDS011;17195;50.838;7.214;2022-08-07T08:35:14;0.77;;;0.40;;
30398;SDS011;17195;50.838;7.214;2022-08-07T08:37:44;1.20;;;0.73;;
30398;SDS011;17195;50.838;7.214;2022-08-07T08:40:15;1.20;;;0.50;;
30398;SDS011;17195;50.838;7.214;2022-08-07T08:45:56;2.10;;;0.52;;
30398;SDS011;17195;50.838;7.214;2022-08-07T08:48:34;2.88;;;0.55;;
30398;SDS011;17195;50.838;7.214;2022-08-07T08:51:17;1.40;;;0.52;;
30398;SDS011;17195;50.838;7.214;2022-08-07T08:54:09;1.63;;;0.68;;
30398;SDS011;17195;50.838;7.214;2022-08-07T08:56:46;2.88;;;1.10;;
30398;SDS011;17195;50.838;7.214;2022-08-07T08:59:58;1.67;;;0.90;;
30398;SDS011;17195;50.838;7.214;2022-08-07T09:02:31;0.98;;;0.40;;
30398;SDS011;17195;50.838;7.214;2022-08-07T09:16:21;1.55;;;0.40;;
30398;SDS011;17195;50.838;7.214;2022-08-07T09:21:46;0.77;;;0.40;;
30398;SDS011;17195;50.838;7.214;2022-08-07T09:29:54;3.95;;;0.70;;
30398;SDS011;17195;50.838;7.214;2022-08-07T09:32:42;2.50;;;0.40;;
30398;SDS011;17195;50.838;7.214;2022-08-07T09:35:45;2.08;;;0.30;;
30398;SDS011;17195;50.838;7.214;2022-08-07T09:41:08;1.55;;;0.35;;
30398;SDS011;17195;50.838;7.214;2022-08-07T09:43:50;0.73;;;0.28;;
30398;SDS011;17195;50.838;7.214;2022-08-07T10:00:56;2.58;;;0.40;;
30398;SDS011;17195;50.838;7.214;2022-08-07T10:15:03;0.65;;;0.43;;
30398;SDS011;17195;50.838;7.214;2022-08-07T10:17:47;0.98;;;0.82;;
30398;SDS011;17195;50.838;7.214;2022-08-07T10:26:34;0.83;;;0.40;;
30398;SDS011;17195;50.838;7.214;2022-08-07T10:31:58;0.73;;;0.40;;
30398;SDS011;17195;50.838;7.214;2022-08-07T10:37:26;0.80;;;0.38;;
30398;SDS011;17195;50.838;7.214;2022-08-07T10:40:11;0.40;;;0.20;;
30398;SDS011;17195;50.838;7.214;2022-08-07T10:42:53;1.55;;;0.30;;
30398;SDS011;17195;50.838;7.214;2022-08-07T10:45:42;0.35;;;0.35;;
30398;SDS011;17195;50.838;7.214;2022-08-07T10:48:33;1.15;;;0.40;;
30398;SDS011;17195;50.838;7.214;2022-08-07T10:51:23;0.95;;;0.40;;
30398;SDS011;17195;50.838;7.214;2022-08-07T10:54:36;1.77;;;0.40;;
30398;SDS011;17195;50.838;7.214;2022-08-07T10:57:10;0.52;;;0.38;;
30398;SDS011;17195;50.838;7.214;2022-08-07T10:59:49;0.73;;;0.38;;
30398;SDS011;17195;50.838;7.214;2022-08-07T11:02:18;0.75;;;0.57;;
30398;SDS011;17195;50.838;7.214;2022-08-07T11:07:50;0.98;;;0.40;;
30398;SDS011;17195;50.838;7.214;2022-08-07T11:10:58;1.63;;;0.30;;
30398;SDS011;17195;50.838;7.214;2022-08-07T11:13:47;2.97;;;0.38;;
30398;SDS011;17195;50.838;7.214;2022-08-07T11:18:50;4.13;;;0.60;;
30398;SDS011;17195;50.838;7.214;2022-08-07T11:21:28;2.80;;;0.40;;
30398;SDS011;17195;50.838;7.214;2022-08-07T11:24:17;3.25;;;0.30;;
30398;SDS011;17195;50.838;7.214;2022-08-07T11:30:05;0.55;;;0.30;;
30398;SDS011;17195;50.838;7.214;2022-08-07T11:32:39;1.85;;;0.60;;
30398;SDS011;17195;50.838;7.214;2022-08-07T11:35:18;1.50;;;0.40;;
30398;SDS011;17195;50.838;7.214;2022-08-07T11:37:55;0.60;;;0.40;;
30398;SDS011;17195;50.838;7.214;2022-08-07T11:43:20;2.10;;;0.43;;
30398;SDS011;17195;50.838;7.214;2022-08-07T11:51:37;0.63;;;0.30;;
30398;SDS011;17195;50.838;7.214;2022-08-07T12:00:17;1.98;;;0.40;;
30398;SDS011;17195;50.838;7.214;2022-08-07T12:07:59;1.00;;;0.40;;
30398;SDS011;17195;50.838;7.214;2022-08-07T12:10:48;0.90;;;0.40;;
30398;SDS011;17195;50.838;7.214;2022-08-07T12:13:22;0.75;;;0.40;;
30398;SDS011;17195;50.838;7.214;2022-08-07T12:16:15;1.52;;;0.40;;
30398;SDS011;17195;50.838;7.214;2022-08-07T12:18:47;2.50;;;0.60;;
30398;SDS011;17195;50.838;7.214;2022-08-07T12:27:11;2.05;;;0.60;;
30398;SDS011;17195;50.838;7.214;2022-08-07T12:29:41;1.65;;;0.57;;
30398;SDS011;17195;50.838;7.214;2022-08-07T12:32:22;2.03;;;0.40;;
30398;SDS011;17195;50.838;7.214;2022-08-07T12:34:55;0.30;;;0.30;;
30398;SDS011;17195;50.838;7.214;2022-08-07T12:37:23;0.75;;;0.30;;
30398;SDS011;17195;50.838;7.214;2022-08-07T12:39:50;1.50;;;0.45;;
30398;SDS011;17195;50.838;7.214;2022-08-07T12:42:19;1.50;;;0.40;;
30398;SDS011;17195;50.838;7.214;2022-08-07T12:44:48;0.50;;;0.22;;
30398;SDS011;17195;50.838;7.214;2022-08-07T12:47:20;3.08;;;0.35;;
30398;SDS011;17195;50.838;7.214;2022-08-07T12:50:03;0.30;;;0.30;;
30398;SDS011;17195;50.838;7.214;2022-08-07T12:52:40;1.85;;;0.40;;
30398;SDS011;17195;50.838;7.214;2022-08-07T12:55:16;0.40;;;0.30;;
30398;SDS011;17195;50.838;7.214;2022-08-07T12:57:48;0.75;;;0.32;;
30398;SDS011;17195;50.838;7.214;2022-08-07T13:00:15;1.02;;;0.30;;
30398;SDS011;17195;50.838;7.214;2022-08-07T13:05:37;1.45;;;0.30;;
30398;SDS011;17195;50.838;7.214;2022-08-07T13:11:24;1.15;;;0.30;;
30398;SDS011;17195;50.838;7.214;2022-08-07T13:14:20;3.20;;;0.43;;
30398;SDS011;17195;50.838;7.214;2022-08-07T13:17:11;0.55;;;0.30;;
30398;SDS011;17195;50.838;7.214;2022-08-07T13:19:42;0.90;;;0.30;;
30398;SDS011;17195;50.838;7.214;2022-08-07T13:22:18;1.75;;;0.40;;
30398;SDS011;17195;50.838;7.214;2022-08-07T13:25:08;0.40;;;0.28;;
30398;SDS011;17195;50.838;7.214;2022-08-07T13:27:36;2.05;;;0.30;;
30398;SDS011;17195;50.838;7.214;2022-08-07T13:30:08;0.40;;;0.30;;
30398;SDS011;17195;50.838;7.214;2022-08-07T13:38:13;4.68;;;2.03;;
30398;SDS011;17195;50.838;7.214;2022-08-07T13:43:27;0.52;;;0.30;;
30398;SDS011;17195;50.838;7.214;2022-08-07T13:45:54;2.00;;;0.43;;
30398;SDS011;17195;50.838;7.214;2022-08-07T13:48:24;2.45;;;0.50;;
30398;SDS011;17195;50.838;7.214;2022-08-07T13:50:52;2.75;;;1.00;;
30398;SDS011;17195;50.838;7.214;2022-08-07T13:53:18;0.77;;;0.30;;
30398;SDS011;17195;50.838;7.214;2022-08-07T13:55:47;0.95;;;0.30;;
30398;SDS011;17195;50.838;7.214;2022-08-07T13:58:14;0.95;;;0.20;;
30398;SDS011;17195;50.838;7.214;2022-08-07T14:01:11;0.43;;;0.30;;
30398;SDS011;17195;50.838;7.214;2022-08-07T14:06:06;0.28;;;0.20;;
30398;SDS011;17195;50.838;7.214;2022-08-07T14:08:33;0.85;;;0.40;;
30398;SDS011;17195;50.838;7.214;2022-08-07T14:11:06;0.55;;;0.40;;
30398;SDS011;17195;50.838;7.214;2022-08-07T14:13:36;0.88;;;0.30;;
30398;SDS011;17195;50.838;7.214;2022-08-07T14:16:05;0.57;;;0.28;;
30398;SDS011;17195;50.838;7.214;2022-08-07T14:18:43;0.73;;;0.30;;
30398;SDS011;17195;50.838;7.214;2022-08-07T14:21:17;1.88;;;0.20;;
30398;SDS011;17195;50.838;7.214;2022-08-07T14:23:58;0.60;;;0.43;;
30398;SDS011;17195;50.838;7.214;2022-08-07T14:26:43;0.40;;;0.20;;
30398;SDS011;17195;50.838;7.214;2022-08-07T14:29:15;0.30;;;0.20;;
30398;SDS011;17195;50.838;7.214;2022-08-07T14:31:45;3.30;;;0.30;;
30398;SDS011;17195;50.838;7.214;2022-08-07T14:34:13;0.85;;;0.30;;
30398;SDS011;17195;50.838;7.214;2022-08-07T14:36:41;0.20;;;0.20;;
30398;SDS011;17195;50.838;7.214;2022-08-07T14:39:07;0.93;;;0.30;;
30398;SDS011;17195;50.838;7.214;2022-08-07T14:41:34;0.45;;;0.20;;
30398;SDS011;17195;50.838;7.214;2022-08-07T14:44:02;2.25;;;0.40;;
30398;SDS011;17195;50.838;7.214;2022-08-07T14:46:32;0.38;;;0.17;;
30398;SDS011;17195;50.838;7.214;2022-08-07T14:48:59;0.77;;;0.30;;
30398;SDS011;17195;50.838;7.214;2022-08-07T14:51:26;0.70;;;0.30;;
30398;SDS011;17195;50.838;7.214;2022-08-07T14:53:54;1.40;;;0.20;;
30398;SDS011;17195;50.838;7.214;2022-08-07T14:56:22;2.55;;;0.25;;
30398;SDS011;17195;50.838;7.214;2022-08-07T14:58:52;0.38;;;0.20;;
30398;SDS011;17195;50.838;7.214;2022-08-07T15:01:19;0.10;;;0.10;;
30398;SDS011;17195;50.838;7.214;2022-08-07T15:03:50;0.77;;;0.30;;
30398;SDS011;17195;50.838;7.214;2022-08-07T15:06:20;0.40;;;0.20;;
30398;SDS011;17195;50.838;7.214;2022-08-07T15:08:49;0.98;;;0.45;;
30398;SDS011;17195;50.838;7.214;2022-08-07T15:11:18;0.35;;;0.30;;
30398;SDS011;17195;50.838;7.214;2022-08-07T15:13:56;1.13;;;0.32;;
30398;SDS011;17195;50.838;7.214;2022-08-07T15:16:27;3.80;;;0.35;;
30398;SDS011;17195;50.838;7.214;2022-08-07T15:19:07;0.55;;;0.30;;
30398;SDS011;17195;50.838;7.214;2022-08-07T15:21:40;0.35;;;0.17;;
30398;SDS011;17195;50.838;7.214;2022-08-07T15:24:11;0.43;;;0.20;;
30398;SDS011;17195;50.838;7.214;2022-08-07T15:26:43;0.73;;;0.20;;
30398;SDS011;17195;50.838;7.214;2022-08-07T15:29:14;1.05;;;0.25;;
30398;SDS011;17195;50.838;7.214;2022-08-07T15:31:42;0.70;;;0.30;;
30398;SDS011;17195;50.838;7.214;2022-08-07T15:34:11;0.63;;;0.20;;
30398;SDS011;17195;50.838;7.214;2022-08-07T15:36:38;0.38;;;0.20;;
30398;SDS011;17195;50.838;7.214;2022-08-07T15:39:05;0.32;;;0.17;;
30398;SDS011;17195;50.838;7.214;2022-08-07T15:41:36;1.17;;;0.47;;
30398;SDS011;17195;50.838;7.214;2022-08-07T15:44:20;0.30;;;0.20;;
30398;SDS011;17195;50.838;7.214;2022-08-07T15:46:54;0.75;;;0.25;;
30398;SDS011;17195;50.838;7.214;2022-08-07T15:49:29;1.75;;;0.30;;
30398;SDS011;17195;50.838;7.214;2022-08-07T15:51:58;0.77;;;0.30;;
30398;SDS011;17195;50.838;7.214;2022-08-07T15:54:38;0.40;;;0.30;;
30398;SDS011;17195;50.838;7.214;2022-08-07T15:57:10;0.40;;;0.20;;
30398;SDS011;17195;50.838;7.214;2022-08-07T15:59:39;0.30;;;0.20;;
30398;SDS011;17195;50.838;7.214;2022-08-07T16:02:11;1.75;;;0.30;;
30398;SDS011;17195;50.838;7.214;2022-08-07T16:04:46;0.20;;;0.20;;
30398;SDS011;17195;50.838;7.214;2022-08-07T16:07:12;2.70;;;0.30;;
30398;SDS011;17195;50.838;7.214;2022-08-07T16:09:48;0.63;;;0.30;;
30398;SDS011;17195;50.838;7.214;2022-08-07T16:12:40;0.25;;;0.20;;
30398;SDS011;17195;50.838;7.214;2022-08-07T16:15:14;2.40;;;0.25;;
30398;SDS011;17195;50.838;7.214;2022-08-07T16:20:39;0.38;;;0.25;;
30398;SDS011;17195;50.838;7.214;2022-08-07T16:32:12;1.40;;;0.20;;
30398;SDS011;17195;50.838;7.214;2022-08-07T16:34:50;2.90;;;0.28;;
30398;SDS011;17195;50.838;7.214;2022-08-07T16:54:32;0.70;;;0.40;;
30398;SDS011;17195;50.838;7.214;2022-08-07T16:57:18;0.30;;;0.20;;
30398;SDS011;17195;50.838;7.214;2022-08-07T17:08:34;0.68;;;0.30;;
30398;SDS011;17195;50.838;7.214;2022-08-07T17:11:08;1.67;;;0.50;;
30398;SDS011;17195;50.838;7.214;2022-08-07T17:16:14;1.50;;;0.30;;
30398;SDS011;17195;50.838;7.214;2022-08-07T17:19:00;0.77;;;0.30;;
30398;SDS011;17195;50.838;7.214;2022-08-07T17:21:29;1.85;;;0.57;;
30398;SDS011;17195;50.838;7.214;2022-08-07T17:27:16;0.65;;;0.50;;
30398;SDS011;17195;50.838;7.214;2022-08-07T17:32:38;0.30;;;0.30;;
30398;SDS011;17195;50.838;7.214;2022-08-07T17:35:24;2.45;;;0.50;;
30398;SDS011;17195;50.838;7.214;2022-08-07T17:43:29;0.32;;;0.30;;
30398;SDS011;17195;50.838;7.214;2022-08-07T17:49:16;1.63;;;0.43;;
30398;SDS011;17195;50.838;7.214;2022-08-07T17:57:56;2.00;;;0.50;;
30398;SDS011;17195;50.838;7.214;2022-08-07T18:00:25;1.92;;;0.50;;
30398;SDS011;17195;50.838;7.214;2022-08-07T18:02:57;0.80;;;0.35;;
30398;SDS011;17195;50.838;7.214;2022-08-07T18:05:27;0.57;;;0.30;;
30398;SDS011;17195;50.838;7.214;2022-08-07T18:08:13;0.55;;;0.40;;
30398;SDS011;17195;50.838;7.214;2022-08-07T18:16:00;0.70;;;0.30;;
30398;SDS011;17195;50.838;7.214;2022-08-07T18:18:54;1.48;;;0.30;;
30398;SDS011;17195;50.838;7.214;2022-08-07T18:24:05;2.75;;;0.50;;
30398;SDS011;17195;50.838;7.214;2022-08-07T18:26:52;1.70;;;0.60;;
30398;SDS011;17195;50.838;7.214;2022-08-07T18:35:38;0.82;;;0.40;;
30398;SDS011;17195;50.838;7.214;2022-08-07T18:46:27;0.73;;;0.50;;